Terminal Aerodrome Forecast
Issued by NWS Nashville, TN

Home | Current Version | Previous Version | Text Only | Print | Product List | Glossary On
Versions: 1 2 3 4 5 6 7 8 9 10 11 12 13 14 15 16 17
931
FTUS44 KOHX 090524
TAFBNA
TAF
KBNA 090524Z 0906/1006 32009KT 5SM -SN BR SCT012 BKN022 OVC045
     FM091200 30008G18KT 3SM -SN BR OVC025
     FM100200 31009G18KT P6SM OVC025=

USA.gov is the U.S. government's official web portal to all federal, state and local government web resources and services.